createdAt,value
2023-03-27T00:01:25.858Z,64.07
2023-03-27T00:03:53.448Z,63.49
2023-03-27T00:06:22.022Z,63.63
2023-03-27T00:08:51.761Z,63.10
2023-03-27T00:11:21.805Z,62.85
2023-03-27T00:13:51.450Z,62.85
2023-03-27T00:16:26.594Z,62.40
2023-03-27T00:18:55.821Z,62.29
2023-03-27T00:21:24.139Z,62.18
2023-03-27T00:23:52.102Z,61.76
2023-03-27T00:26:19.950Z,63.07
2023-03-27T00:28:47.433Z,63.59
2023-03-27T00:31:17.428Z,64.16
2023-03-27T00:33:44.624Z,62.94
2023-03-27T00:36:12.063Z,62.66
2023-03-27T00:38:40.150Z,62.36
2023-03-27T00:41:08.815Z,62.83
2023-03-27T00:43:42.658Z,63.33
2023-03-27T00:46:15.907Z,63.73
2023-03-27T00:48:48.853Z,63.93
2023-03-27T00:51:20.204Z,64.46
2023-03-27T00:53:49.351Z,66.76
2023-03-27T00:56:17.995Z,67.59
2023-03-27T00:58:53.707Z,67.66
2023-03-27T01:01:27.700Z,68.11
2023-03-27T01:04:00.971Z,67.99
2023-03-27T01:06:31.229Z,68.59
2023-03-27T01:08:59.509Z,68.01
2023-03-27T01:12:09.117Z,68.68
2023-03-27T01:15:21.317Z,68.66
2023-03-27T01:18:33.337Z,68.17
2023-03-27T01:21:40.160Z,67.35
2023-03-27T01:24:52.901Z,67.64
2023-03-27T01:28:29.615Z,67.83
2023-03-27T01:31:16.626Z,67.98
2023-03-27T01:34:07.876Z,67.11
2023-03-27T01:36:43.765Z,68.52
2023-03-27T01:40:24.742Z,67.90
2023-03-27T01:43:05.430Z,68.06
2023-03-27T01:46:04.170Z,66.88
2023-03-27T01:48:39.198Z,67.31
2023-03-27T01:51:23.333Z,67.13
2023-03-27T01:53:59.055Z,65.80
2023-03-27T01:56:38.061Z,64.77
2023-03-27T01:59:18.994Z,65.63
2023-03-27T02:01:57.190Z,65.82
2023-03-27T02:04:39.096Z,65.73
2023-03-27T02:07:18.688Z,65.89
2023-03-27T02:09:55.565Z,65.25
2023-03-27T02:12:34.320Z,68.46
2023-03-27T02:15:25.386Z,70.05
2023-03-27T02:18:05.285Z,70.03
2023-03-27T02:20:36.682Z,68.28
2023-03-27T02:23:07.678Z,69.49
2023-03-27T02:25:38.908Z,69.61
2023-03-27T02:28:36.917Z,69.85
2023-03-27T02:31:32.824Z,69.88
2023-03-27T02:34:18.479Z,69.84
2023-03-27T02:37:50.922Z,70.37
2023-03-27T02:41:13.509Z,69.20
2023-03-27T02:44:17.091Z,68.80
2023-03-27T02:47:29.814Z,69.23
2023-03-27T02:50:28.769Z,69.53
2023-03-27T02:53:06.775Z,69.28
2023-03-27T02:55:42.229Z,69.75
2023-03-27T02:58:38.021Z,71.21
2023-03-27T03:01:13.806Z,69.38
2023-03-27T03:04:16.553Z,69.67
2023-03-27T03:07:06.386Z,69.96
2023-03-27T03:09:34.474Z,70.16
2023-03-27T03:12:08.870Z,69.17
2023-03-27T03:14:44.219Z,69.32
2023-03-27T03:17:13.903Z,69.68
2023-03-27T03:19:42.001Z,70.44
2023-03-27T03:22:09.907Z,71.05
2023-03-27T03:24:41.991Z,70.77
2023-03-27T03:27:12.703Z,70.58
2023-03-27T03:29:56.901Z,70.11
2023-03-27T03:32:28.073Z,71.17
2023-03-27T03:34:57.366Z,70.43
2023-03-27T03:37:28.608Z,70.67
2023-03-27T03:39:57.293Z,69.73
2023-03-27T03:42:25.007Z,69.94
2023-03-27T03:44:53.294Z,70.40
2023-03-27T03:47:22.519Z,70.68
2023-03-27T03:49:50.577Z,70.60
2023-03-27T03:52:18.437Z,70.62
2023-03-27T03:54:46.797Z,70.84
2023-03-27T03:57:14.328Z,69.72
2023-03-27T03:59:42.701Z,70.27
2023-03-27T04:02:29.737Z,70.07
2023-03-27T04:05:09.998Z,69.89
2023-03-27T04:07:41.054Z,70.26
2023-03-27T04:10:21.587Z,69.88
2023-03-27T04:12:50.684Z,70.45
2023-03-27T04:15:22.595Z,69.69
2023-03-27T04:18:02.102Z,68.75
2023-03-27T04:20:30.118Z,69.58
2023-03-27T04:23:02.241Z,68.58
2023-03-27T04:25:30.747Z,68.58
2023-03-27T04:28:02.101Z,69.50
2023-03-27T04:30:37.040Z,70.02
2023-03-27T04:33:19.889Z,68.73
2023-03-27T04:36:11.394Z,69.73
2023-03-27T04:39:03.478Z,67.18
2023-03-27T04:41:32.686Z,68.91
2023-03-27T04:44:00.222Z,68.23
2023-03-27T04:46:27.804Z,67.50
2023-03-27T04:49:01.273Z,67.94
2023-03-27T04:51:42.492Z,68.55
2023-03-27T04:54:11.773Z,67.79
2023-03-27T04:56:43.253Z,68.69
2023-03-27T04:59:10.400Z,68.87
2023-03-27T05:01:37.788Z,68.55
2023-03-27T05:04:26.629Z,68.24
2023-03-27T05:07:15.896Z,67.87
2023-03-27T05:09:43.148Z,68.00
2023-03-27T05:12:11.077Z,67.61
2023-03-27T05:14:49.478Z,66.77
2023-03-27T05:17:33.704Z,67.09
2023-03-27T05:20:01.861Z,68.33
2023-03-27T05:22:32.883Z,67.69
2023-03-27T05:25:09.716Z,68.15
2023-03-27T05:27:37.115Z,67.17
2023-03-27T05:30:05.169Z,67.78
2023-03-27T05:32:32.786Z,66.88
2023-03-27T05:35:11.689Z,68.02
2023-03-27T05:37:50.783Z,68.10
2023-03-27T05:40:28.234Z,68.30
2023-03-27T05:42:56.970Z,66.79
2023-03-27T05:45:29.370Z,65.69
2023-03-27T05:48:00.191Z,66.50
2023-03-27T05:50:34.656Z,65.54
2023-03-27T05:53:10.073Z,66.23
2023-03-27T05:55:41.692Z,66.30
2023-03-27T05:58:11.730Z,66.82
2023-03-27T06:00:42.711Z,67.64
2023-03-27T06:03:14.587Z,65.85
2023-03-27T06:06:07.142Z,65.93
2023-03-27T06:08:36.616Z,66.78
2023-03-27T06:11:13.454Z,65.52
2023-03-27T06:13:47.690Z,62.43
2023-03-27T06:16:20.919Z,63.34
2023-03-27T06:18:51.428Z,62.24
2023-03-27T06:21:20.931Z,60.40
2023-03-27T06:23:49.375Z,62.19
2023-03-27T06:26:18.851Z,60.90
2023-03-27T06:28:46.629Z,58.76
2023-03-27T06:31:14.850Z,58.04
2023-03-27T06:33:56.244Z,59.05
2023-03-27T06:36:35.863Z,56.79
2023-03-27T06:39:06.246Z,55.30
2023-03-27T06:41:34.382Z,54.86
2023-03-27T06:44:19.621Z,55.15
2023-03-27T06:47:07.509Z,53.22
2023-03-27T06:49:54.673Z,53.80
2023-03-27T06:52:23.757Z,52.25
2023-03-27T06:54:51.015Z,52.85
2023-03-27T06:57:18.342Z,52.88
2023-03-27T07:00:01.626Z,51.90
2023-03-27T07:02:55.308Z,51.41
2023-03-27T07:05:42.830Z,52.27
2023-03-27T07:10:56.465Z,51.47
2023-03-27T07:13:37.260Z,51.09
2023-03-27T07:16:08.499Z,50.37
2023-03-27T07:18:36.635Z,50.48
2023-03-27T07:21:04.581Z,50.60
2023-03-27T07:23:31.846Z,50.40
2023-03-27T07:26:04.595Z,50.67
2023-03-27T07:28:51.687Z,49.83
2023-03-27T07:31:33.046Z,49.98
2023-03-27T07:34:05.295Z,49.34
2023-03-27T07:36:50.966Z,47.90
2023-03-27T07:39:18.540Z,48.40
2023-03-27T07:41:46.009Z,49.65
2023-03-27T07:44:31.006Z,49.47
2023-03-27T07:47:05.859Z,47.90
2023-03-27T07:49:39.537Z,48.05
2023-03-27T07:52:09.118Z,48.35
2023-03-27T07:54:44.235Z,46.39
2023-03-27T07:57:13.824Z,46.46
2023-03-27T07:59:54.417Z,46.10
2023-03-27T08:02:31.883Z,46.26
2023-03-27T08:04:59.867Z,46.13
2023-03-27T08:07:27.275Z,45.22
2023-03-27T08:09:58.118Z,43.59
2023-03-27T08:12:25.443Z,41.31
2023-03-27T08:14:59.432Z,41.38
2023-03-27T08:17:32.491Z,38.50
2023-03-27T08:20:09.165Z,37.72
2023-03-27T08:22:44.563Z,36.14
2023-03-27T08:25:34.658Z,34.85
2023-03-27T08:28:06.220Z,35.87
2023-03-27T08:30:35.351Z,35.31
2023-03-27T08:33:03.703Z,32.67
2023-03-27T08:35:31.761Z,29.01
2023-03-27T08:37:59.629Z,29.60
2023-03-27T08:40:54.228Z,28.32
2023-03-27T08:43:44.783Z,26.23
2023-03-27T08:49:17.416Z,21.21
2023-03-27T08:52:27.355Z,20.36
2023-03-27T08:55:24.615Z,20.13
2023-03-27T08:58:03.773Z,18.50
2023-03-27T09:00:40.417Z,17.19
2023-03-27T09:03:41.354Z,17.46
2023-03-27T09:06:34.219Z,18.29
2023-03-27T09:09:46.348Z,19.04
2023-03-27T09:12:33.215Z,16.84
2023-03-27T09:15:28.130Z,18.00
2023-03-27T09:18:11.725Z,18.94
2023-03-27T09:20:54.890Z,17.00
2023-03-27T09:23:34.148Z,18.11
2023-03-27T09:26:25.568Z,19.24
2023-03-27T09:29:29.868Z,19.96
2023-03-27T09:32:15.671Z,21.16
2023-03-27T09:34:44.935Z,21.05
2023-03-27T09:37:17.896Z,21.71
2023-03-27T09:39:52.544Z,23.88
2023-03-27T09:42:39.772Z,23.69
2023-03-27T09:45:11.370Z,21.70
2023-03-27T09:47:59.866Z,20.98
2023-03-27T09:50:44.447Z,22.42
2023-03-27T09:53:59.417Z,23.72
2023-03-27T09:56:42.912Z,24.62
2023-03-27T09:59:24.427Z,23.25
2023-03-27T10:01:57.944Z,21.53
2023-03-27T10:04:30.136Z,22.00
2023-03-27T10:07:08.189Z,24.46
2023-03-27T10:10:20.078Z,21.38
2023-03-27T10:13:11.838Z,20.47
2023-03-27T10:15:45.076Z,19.10
2023-03-27T10:18:31.469Z,20.14
2023-03-27T10:21:39.234Z,22.78
2023-03-27T10:24:31.591Z,22.84
2023-03-27T10:27:26.916Z,20.34
2023-03-27T10:30:38.039Z,18.87
2023-03-27T10:33:41.331Z,16.63
2023-03-27T10:36:39.629Z,17.63
2023-03-27T10:39:15.379Z,15.73
2023-03-27T10:42:09.900Z,18.45
2023-03-27T10:44:46.980Z,21.04
2023-03-27T10:47:24.694Z,23.61
2023-03-27T10:50:38.473Z,22.16
2023-03-27T10:53:33.294Z,21.99
2023-03-27T10:56:54.055Z,22.48
2023-03-27T10:59:41.458Z,22.11
2023-03-27T11:02:25.218Z,23.65
2023-03-27T11:05:04.291Z,20.48
2023-03-27T11:07:47.903Z,16.74
2023-03-27T11:10:34.324Z,16.77
2023-03-27T11:13:23.116Z,17.03
2023-03-27T11:16:18.687Z,17.79
2023-03-27T11:19:11.383Z,19.34
2023-03-27T11:22:35.114Z,19.89
2023-03-27T11:25:41.000Z,19.43
2023-03-27T11:28:18.652Z,19.72
2023-03-27T11:30:56.023Z,17.58
2023-03-27T11:33:46.454Z,18.69
2023-03-27T11:37:04.934Z,20.93
2023-03-27T11:40:05.742Z,20.63
2023-03-27T11:42:43.388Z,18.59
2023-03-27T11:45:17.332Z,17.37
2023-03-27T11:48:05.227Z,17.84
2023-03-27T11:51:06.842Z,14.60
2023-03-27T11:53:54.997Z,13.84
2023-03-27T11:56:54.737Z,17.05
2023-03-27T12:00:05.485Z,20.60
2023-03-27T12:03:21.270Z,21.95
2023-03-27T12:06:40.860Z,22.98
2023-03-27T12:10:01.676Z,23.44
2023-03-27T12:13:34.973Z,21.20
2023-03-27T12:16:30.721Z,19.26
2023-03-27T12:19:45.090Z,17.89
2023-03-27T12:22:57.742Z,18.25
2023-03-27T12:26:10.143Z,16.94
2023-03-27T12:29:24.442Z,16.20
2023-03-27T12:32:19.189Z,17.57
2023-03-27T12:35:03.411Z,19.42
2023-03-27T12:38:06.248Z,20.10
2023-03-27T12:40:42.067Z,18.63
2023-03-27T12:43:39.741Z,16.63
2023-03-27T12:46:41.082Z,16.40
2023-03-27T12:49:11.893Z,19.02
2023-03-27T12:51:54.663Z,16.58
2023-03-27T12:54:40.596Z,17.76
2023-03-27T12:57:30.853Z,16.31
2023-03-27T13:00:10.331Z,16.69
2023-03-27T13:03:21.632Z,15.33
2023-03-27T13:06:37.631Z,15.60
2023-03-27T13:09:52.862Z,18.06
2023-03-27T13:13:17.240Z,19.27
2023-03-27T13:15:52.637Z,20.28
2023-03-27T13:19:09.312Z,21.14
2023-03-27T13:22:09.267Z,21.33
2023-03-27T13:25:30.688Z,21.32
2023-03-27T13:28:48.631Z,22.26
2023-03-27T13:31:47.147Z,22.93
2023-03-27T13:34:26.591Z,23.02
2023-03-27T13:37:11.612Z,23.95
2023-03-27T13:40:04.041Z,24.89
2023-03-27T13:42:44.995Z,33.09
2023-03-27T13:45:38.366Z,38.48
2023-03-27T13:49:02.445Z,40.99
2023-03-27T13:52:31.926Z,50.11
2023-03-27T13:55:17.475Z,50.85
2023-03-27T13:58:41.799Z,43.88
2023-03-27T14:02:02.062Z,43.78
2023-03-27T14:04:51.982Z,43.86
2023-03-27T14:08:19.623Z,44.07
2023-03-27T14:11:53.289Z,41.94
2023-03-27T14:15:33.599Z,42.63
2023-03-27T14:18:53.554Z,43.91
2023-03-27T14:21:37.944Z,44.06
2023-03-27T14:24:32.472Z,42.55
2023-03-27T14:27:16.827Z,38.88
2023-03-27T14:29:45.090Z,39.22
2023-03-27T14:32:19.869Z,37.49
2023-03-27T14:34:55.082Z,38.52
2023-03-27T14:37:37.501Z,38.06
2023-03-27T14:40:27.700Z,37.59
2023-03-27T14:43:01.610Z,37.85
2023-03-27T14:45:39.280Z,37.04
2023-03-27T14:48:26.955Z,38.49
2023-03-27T14:51:04.429Z,37.58
2023-03-27T14:53:44.068Z,37.36
2023-03-27T14:56:47.281Z,38.25
2023-03-27T14:59:42.754Z,38.64
2023-03-27T15:02:20.807Z,38.75
2023-03-27T15:04:50.172Z,39.11
2023-03-27T15:07:28.605Z,39.62
2023-03-27T15:10:28.202Z,38.55
2023-03-27T15:13:11.216Z,36.97
2023-03-27T15:15:50.079Z,36.39
2023-03-27T15:18:42.949Z,35.98
2023-03-27T15:21:34.649Z,36.15
2023-03-27T15:24:32.802Z,35.45
2023-03-27T15:27:02.248Z,36.32
2023-03-27T15:29:49.542Z,36.37
2023-03-27T15:32:22.019Z,36.32
2023-03-27T15:34:58.235Z,36.53
2023-03-27T15:37:28.628Z,36.86
2023-03-27T15:40:10.907Z,38.18
2023-03-27T15:42:52.379Z,38.04
2023-03-27T15:45:24.320Z,37.58
2023-03-27T15:48:16.845Z,38.29
2023-03-27T15:51:29.551Z,39.17
2023-03-27T15:53:57.110Z,38.76
2023-03-27T15:56:39.722Z,39.24
2023-03-27T15:59:15.498Z,39.46
2023-03-27T16:01:53.448Z,39.90
2023-03-27T16:04:41.945Z,40.88
2023-03-27T16:07:27.334Z,43.59
2023-03-27T16:10:06.767Z,43.85
2023-03-27T16:12:55.922Z,43.39
2023-03-27T16:15:41.370Z,43.01
2023-03-27T16:18:28.281Z,43.37
2023-03-27T16:21:14.881Z,43.55
2023-03-27T16:23:43.935Z,43.84
2023-03-27T16:26:18.494Z,43.07
2023-03-27T16:28:45.687Z,43.20
2023-03-27T16:31:19.733Z,43.37
2023-03-27T16:33:47.772Z,43.84
2023-03-27T16:36:20.779Z,43.44
2023-03-27T16:38:48.527Z,43.46
2023-03-27T16:41:18.077Z,43.56
2023-03-27T16:43:46.297Z,43.96
2023-03-27T16:46:33.793Z,46.12
2023-03-27T16:49:01.554Z,47.92
2023-03-27T16:51:29.295Z,49.42
2023-03-27T16:53:57.367Z,47.40
2023-03-27T16:56:24.598Z,48.51
2023-03-27T16:58:51.857Z,47.96
2023-03-27T17:01:19.214Z,47.19
2023-03-27T17:03:46.838Z,47.87
2023-03-27T17:06:15.168Z,47.97
2023-03-27T17:08:42.499Z,47.07
2023-03-27T17:11:13.520Z,47.09
2023-03-27T17:13:43.399Z,47.02
2023-03-27T17:16:11.514Z,46.94
2023-03-27T17:18:38.921Z,45.93
2023-03-27T17:21:06.652Z,47.06
2023-03-27T17:23:33.917Z,46.56
2023-03-27T17:26:04.949Z,46.02
2023-03-27T17:28:32.220Z,45.78
2023-03-27T17:31:04.762Z,46.39
2023-03-27T17:33:33.753Z,47.21
2023-03-27T17:36:01.435Z,47.39
2023-03-27T17:38:29.458Z,49.38
2023-03-27T17:40:56.653Z,49.25
2023-03-27T17:43:23.785Z,50.09
2023-03-27T17:45:51.550Z,50.04
2023-03-27T17:48:20.295Z,50.50
2023-03-27T17:50:54.813Z,49.65
2023-03-27T17:53:30.663Z,50.02
2023-03-27T17:55:59.431Z,50.12
2023-03-27T17:58:28.349Z,50.76
2023-03-27T18:00:55.826Z,51.15
2023-03-27T18:03:23.569Z,50.99
2023-03-27T18:05:51.027Z,51.99
2023-03-27T18:08:19.996Z,52.03
2023-03-27T18:10:50.757Z,51.64
2023-03-27T18:13:19.420Z,52.54
2023-03-27T18:15:58.308Z,52.08
2023-03-27T18:18:26.250Z,51.19
2023-03-27T18:20:55.650Z,51.51
2023-03-27T18:23:23.023Z,51.59
2023-03-27T18:25:50.336Z,50.75
2023-03-27T18:28:17.505Z,50.44
2023-03-27T18:30:44.660Z,50.60
2023-03-27T18:33:12.018Z,50.79
2023-03-27T18:35:42.589Z,51.67
2023-03-27T18:38:11.621Z,51.91
2023-03-27T18:40:38.821Z,52.88
2023-03-27T18:43:06.325Z,52.86
2023-03-27T18:45:35.210Z,50.94
2023-03-27T18:48:02.433Z,52.35
2023-03-27T18:50:29.618Z,52.52
2023-03-27T18:52:56.741Z,52.77
2023-03-27T18:55:24.102Z,51.67
2023-03-27T18:57:51.960Z,53.16
2023-03-27T19:00:20.369Z,53.33
2023-03-27T19:02:49.019Z,54.43
2023-03-27T19:05:17.754Z,54.03
2023-03-27T19:07:45.362Z,54.59
2023-03-27T19:10:14.008Z,54.61
2023-03-27T19:12:44.957Z,55.52
2023-03-27T19:15:36.200Z,53.81
2023-03-27T19:18:06.409Z,55.34
2023-03-27T19:21:02.849Z,55.26
2023-03-27T19:23:45.258Z,57.14
2023-03-27T19:26:17.022Z,56.35
2023-03-27T19:28:49.670Z,55.04
2023-03-27T19:31:17.460Z,52.52
2023-03-27T19:33:45.881Z,51.93
2023-03-27T19:36:13.123Z,52.44
2023-03-27T19:38:40.449Z,56.33
2023-03-27T19:41:11.391Z,58.43
2023-03-27T19:43:38.598Z,57.90
2023-03-27T19:46:15.573Z,57.98
2023-03-27T19:48:49.567Z,58.24
2023-03-27T19:51:25.789Z,58.02
2023-03-27T19:53:53.428Z,57.73
2023-03-27T19:56:23.461Z,57.12
2023-03-27T19:58:50.933Z,58.14
2023-03-27T20:01:19.875Z,57.46
2023-03-27T20:03:47.370Z,56.95
2023-03-27T20:06:18.945Z,56.22
2023-03-27T20:08:46.272Z,57.41
2023-03-27T20:11:15.786Z,58.88
2023-03-27T20:13:55.367Z,59.94
2023-03-27T20:16:27.454Z,60.43
2023-03-27T20:19:05.812Z,60.23
2023-03-27T20:21:39.804Z,60.29
2023-03-27T20:24:14.140Z,61.18
2023-03-27T20:26:48.371Z,61.11
2023-03-27T20:29:24.117Z,60.16
2023-03-27T20:31:51.715Z,59.96
2023-03-27T20:34:19.996Z,59.84
2023-03-27T20:36:47.894Z,58.91
2023-03-27T20:39:27.206Z,60.39
2023-03-27T20:41:59.071Z,61.09
2023-03-27T20:44:35.396Z,60.94
2023-03-27T20:47:10.683Z,60.04
2023-03-27T20:49:45.487Z,60.50
2023-03-27T20:52:17.725Z,60.09
2023-03-27T20:54:45.331Z,60.96
2023-03-27T20:57:15.489Z,60.67
2023-03-27T20:59:42.705Z,59.51
2023-03-27T21:02:21.627Z,60.17
2023-03-27T21:04:49.166Z,60.02
2023-03-27T21:07:16.781Z,58.98
2023-03-27T21:09:46.455Z,58.73
2023-03-27T21:12:13.766Z,57.41
2023-03-27T21:14:41.082Z,57.50
2023-03-27T21:17:11.841Z,57.97
2023-03-27T21:19:39.131Z,57.86
2023-03-27T21:22:06.248Z,57.61
2023-03-27T21:24:33.397Z,57.54
2023-03-27T21:27:00.646Z,57.09
2023-03-27T21:29:27.882Z,56.74
2023-03-27T21:31:55.200Z,56.50
2023-03-27T21:34:22.610Z,57.08
2023-03-27T21:36:49.976Z,56.92
2023-03-27T21:39:17.172Z,56.67
2023-03-27T21:41:44.439Z,56.78
2023-03-27T21:44:11.560Z,56.08
2023-03-27T21:46:38.756Z,55.44
2023-03-27T21:49:05.927Z,55.40
2023-03-27T21:51:33.049Z,56.79
2023-03-27T21:54:00.372Z,56.88
2023-03-27T21:56:27.617Z,56.41
2023-03-27T21:58:57.337Z,56.04
2023-03-27T22:01:25.974Z,56.34
2023-03-27T22:03:53.467Z,57.29
2023-03-27T22:06:20.968Z,57.01
2023-03-27T22:08:48.574Z,56.86
2023-03-27T22:11:16.032Z,57.58
2023-03-27T22:13:43.426Z,56.72
2023-03-27T22:16:15.776Z,56.59
2023-03-27T22:18:44.637Z,57.32
2023-03-27T22:21:22.786Z,56.88
2023-03-27T22:23:51.333Z,57.75
2023-03-27T22:26:22.988Z,57.28
2023-03-27T22:28:52.651Z,58.52
2023-03-27T22:31:21.802Z,59.99
2023-03-27T22:33:49.985Z,60.76
2023-03-27T22:36:18.969Z,61.11
2023-03-27T22:38:46.562Z,61.76
2023-03-27T22:41:16.084Z,62.01
2023-03-27T22:43:43.911Z,62.72
2023-03-27T22:46:21.888Z,62.80
2023-03-27T22:48:58.350Z,63.75
2023-03-27T22:51:29.285Z,63.25
2023-03-27T22:53:56.782Z,63.52
2023-03-27T22:56:24.350Z,64.55
2023-03-27T22:58:51.702Z,63.82
2023-03-27T23:01:19.105Z,63.93
2023-03-27T23:03:46.608Z,64.63
2023-03-27T23:06:21.106Z,65.20
2023-03-27T23:08:49.879Z,64.74
2023-03-27T23:11:19.041Z,65.50
2023-03-27T23:13:47.190Z,64.97
2023-03-27T23:16:16.054Z,66.59
2023-03-27T23:18:43.269Z,66.13
2023-03-27T23:21:13.939Z,66.02
2023-03-27T23:23:41.198Z,65.11
2023-03-27T23:26:09.945Z,65.04
2023-03-27T23:28:41.723Z,64.98
2023-03-27T23:31:18.250Z,65.36
2023-03-27T23:33:50.485Z,64.55
2023-03-27T23:36:23.550Z,65.12
2023-03-27T23:38:53.258Z,64.96
2023-03-27T23:41:21.669Z,64.39
2023-03-27T23:43:49.386Z,65.38
2023-03-27T23:46:17.124Z,66.50
2023-03-27T23:48:45.464Z,67.18
2023-03-27T23:51:15.819Z,66.47
2023-03-27T23:53:43.799Z,65.70
2023-03-27T23:56:11.944Z,66.16
2023-03-27T23:58:39.529Z,66.28
